createdAt,value
2018-07-02T00:00:05.727Z,1012.34
2018-07-02T00:01:05.705Z,1012.33
2018-07-02T00:02:05.705Z,1012.28
2018-07-02T00:03:05.676Z,1012.31
2018-07-02T00:04:05.664Z,1012.32
2018-07-02T00:05:05.652Z,1012.30
2018-07-02T00:06:05.634Z,1012.25
2018-07-02T00:07:05.620Z,1012.21
2018-07-02T00:08:05.613Z,1012.23
2018-07-02T00:09:05.591Z,1012.23
2018-07-02T00:10:05.577Z,1012.17
2018-07-02T00:11:05.562Z,1012.19
2018-07-02T00:12:05.558Z,1012.19
2018-07-02T00:13:05.548Z,1012.19
2018-07-02T00:14:05.520Z,1012.19
2018-07-02T00:15:05.505Z,1012.15
2018-07-02T00:16:05.489Z,1012.20
2018-07-02T00:17:05.478Z,1012.21
2018-07-02T00:18:05.460Z,1012.18
2018-07-02T00:19:05.459Z,1012.17
2018-07-02T00:20:05.439Z,1012.17
2018-07-02T00:21:05.441Z,1012.15
2018-07-02T00:22:05.406Z,1012.14
2018-07-02T00:23:05.396Z,1012.14
2018-07-02T00:24:05.374Z,1012.16
2018-07-02T00:25:05.358Z,1012.20
2018-07-02T00:26:05.345Z,1012.14
2018-07-02T00:27:05.337Z,1012.16
2018-07-02T00:28:05.316Z,1012.15
2018-07-02T00:29:05.302Z,1012.19
2018-07-02T00:30:05.286Z,1012.14
2018-07-02T00:31:05.272Z,1012.21
2018-07-02T00:32:05.263Z,1012.19
2018-07-02T00:33:05.243Z,1012.15
2018-07-02T00:34:05.228Z,1012.17
2018-07-02T00:35:05.213Z,1012.14
2018-07-02T00:36:05.197Z,1012.10
2018-07-02T00:37:05.183Z,1012.10
2018-07-02T00:38:05.170Z,1012.11
2018-07-02T00:39:05.158Z,1012.11
2018-07-02T00:40:05.139Z,1012.16
2018-07-02T00:41:05.125Z,1012.12
2018-07-02T00:42:05.110Z,1012.10
2018-07-02T00:43:05.097Z,1012.08
2018-07-02T00:44:05.080Z,1012.05
2018-07-02T00:45:05.066Z,1012.01
2018-07-02T00:46:05.053Z,1012.01
2018-07-02T00:47:05.040Z,1012.05
2018-07-02T00:48:05.023Z,1012.00
2018-07-02T00:49:05.009Z,1011.98
2018-07-02T00:50:04.993Z,1011.99
2018-07-02T00:51:04.979Z,1011.94
2018-07-02T00:52:04.971Z,1011.93
2018-07-02T00:53:04.948Z,1011.94
2018-07-02T00:54:04.936Z,1011.95
2018-07-02T00:55:04.922Z,1011.91
2018-07-02T00:56:04.906Z,1011.89
2018-07-02T00:57:04.894Z,1011.84
2018-07-02T00:58:04.883Z,1011.80
2018-07-02T00:59:04.869Z,1011.84
2018-07-02T01:00:04.854Z,1011.77
2018-07-02T01:01:04.832Z,1011.82
2018-07-02T01:02:04.818Z,1011.79
2018-07-02T01:03:04.804Z,1011.79
2018-07-02T01:04:04.787Z,1011.85
2018-07-02T01:05:04.778Z,1011.81
2018-07-02T01:06:04.757Z,1011.80
2018-07-02T01:07:04.748Z,1011.82
2018-07-02T01:08:04.731Z,1011.78
2018-07-02T01:09:04.713Z,1011.80
2018-07-02T01:10:04.703Z,1011.81
2018-07-02T01:11:04.689Z,1011.80
2018-07-02T01:12:04.677Z,1011.80
2018-07-02T01:13:04.655Z,1011.82
2018-07-02T01:14:04.639Z,1011.82
2018-07-02T01:15:04.627Z,1011.83
2018-07-02T01:16:04.610Z,1011.81
2018-07-02T01:17:04.604Z,1011.78
2018-07-02T01:18:04.581Z,1011.75
2018-07-02T01:19:04.571Z,1011.73
2018-07-02T01:20:04.556Z,1011.72
2018-07-02T01:21:04.537Z,1011.73
2018-07-02T01:22:04.522Z,1011.69
2018-07-02T01:23:04.506Z,1011.68
2018-07-02T01:24:04.492Z,1011.73
2018-07-02T01:25:04.480Z,1011.74
2018-07-02T01:26:04.465Z,1011.77
2018-07-02T01:27:04.450Z,1011.76
2018-07-02T01:28:04.430Z,1011.75
2018-07-02T01:29:04.419Z,1011.76
2018-07-02T01:30:04.400Z,1011.78
2018-07-02T01:31:04.386Z,1011.79
2018-07-02T01:32:04.371Z,1011.75
2018-07-02T01:33:04.356Z,1011.78
2018-07-02T01:34:04.345Z,1011.76
2018-07-02T01:35:04.328Z,1011.75
2018-07-02T01:36:04.310Z,1011.76
2018-07-02T01:37:04.366Z,1011.72
2018-07-02T01:38:04.283Z,1011.74
2018-07-02T01:39:04.268Z,1011.72
2018-07-02T01:40:04.259Z,1011.72
2018-07-02T01:41:04.238Z,1011.73
2018-07-02T01:42:04.228Z,1011.75
2018-07-02T01:43:04.215Z,1011.71
2018-07-02T01:44:04.189Z,1011.72
2018-07-02T01:45:04.176Z,1011.78
2018-07-02T01:46:04.169Z,1011.74
2018-07-02T01:47:04.147Z,1011.76
2018-07-02T01:48:04.149Z,1011.79
2018-07-02T01:49:04.116Z,1011.78
2018-07-02T01:50:04.103Z,1011.83
2018-07-02T01:51:04.089Z,1011.81
2018-07-02T01:52:04.073Z,1011.87
2018-07-02T01:53:04.056Z,1011.85
2018-07-02T01:54:04.042Z,1011.86
2018-07-02T01:55:04.027Z,1011.89
2018-07-02T01:56:04.010Z,1011.91
2018-07-02T01:57:04.004Z,1011.91
2018-07-02T01:58:03.985Z,1011.94
2018-07-02T01:59:03.987Z,1011.97
2018-07-02T02:00:03.952Z,1011.96
2018-07-02T02:01:03.944Z,1011.98
2018-07-02T02:02:03.934Z,1011.97
2018-07-02T02:03:03.907Z,1011.97
2018-07-02T02:04:03.892Z,1011.99
2018-07-02T02:05:03.877Z,1012.03
2018-07-02T02:06:03.862Z,1011.97
2018-07-02T02:07:03.852Z,1012.03
2018-07-02T02:08:03.833Z,1012.03
2018-07-02T02:09:03.826Z,1011.98
2018-07-02T02:10:03.816Z,1012.00
2018-07-02T02:11:03.789Z,1011.96
2018-07-02T02:12:03.781Z,1011.97
2018-07-02T02:13:03.765Z,1011.94
2018-07-02T02:14:03.743Z,1011.92
2018-07-02T02:15:03.732Z,1011.91
2018-07-02T02:16:03.712Z,1011.93
2018-07-02T02:17:03.698Z,1011.94
2018-07-02T02:18:03.697Z,1011.94
2018-07-02T02:19:03.670Z,1011.98
2018-07-02T02:20:03.653Z,1011.98
2018-07-02T02:21:03.642Z,1012.00
2018-07-02T02:22:03.625Z,1012.00
2018-07-02T02:23:03.608Z,1011.97
2018-07-02T02:24:03.593Z,1012.01
2018-07-02T02:25:03.587Z,1012.02
2018-07-02T02:26:03.573Z,1012.01
2018-07-02T02:27:03.557Z,1012.00
2018-07-02T02:28:03.533Z,1011.97
2018-07-02T02:29:03.520Z,1011.99
2018-07-02T02:30:03.504Z,1011.98
2018-07-02T02:31:03.496Z,1011.99
2018-07-02T02:32:03.473Z,1012.01
2018-07-02T02:33:03.457Z,1011.95
2018-07-02T02:34:03.450Z,1012.02
2018-07-02T02:35:03.438Z,1012.01
2018-07-02T02:36:03.412Z,1012.02
2018-07-02T02:37:03.398Z,1012.00
2018-07-02T02:38:03.398Z,1012.02
2018-07-02T02:39:03.372Z,1012.06
2018-07-02T02:40:03.360Z,1012.03
2018-07-02T02:41:03.343Z,1012.08
2018-07-02T02:42:03.324Z,1012.10
2018-07-02T02:43:03.310Z,1012.08
2018-07-02T02:44:03.293Z,1012.09
2018-07-02T02:45:03.277Z,1012.13
2018-07-02T02:46:03.266Z,1012.10
2018-07-02T02:47:03.249Z,1012.08
2018-07-02T02:48:03.232Z,1012.07
2018-07-02T02:49:03.226Z,1012.02
2018-07-02T02:50:03.201Z,1012.07
2018-07-02T02:51:03.188Z,1012.07
2018-07-02T02:52:03.169Z,1012.09
2018-07-02T02:53:03.154Z,1012.07
2018-07-02T02:54:03.141Z,1012.08
2018-07-02T02:55:03.127Z,1012.07
2018-07-02T02:56:03.116Z,1012.09
2018-07-02T02:57:03.097Z,1012.09
2018-07-02T02:58:03.087Z,1012.08
2018-07-02T02:59:03.065Z,1012.11
2018-07-02T03:00:03.052Z,1012.11
2018-07-02T03:01:03.034Z,1012.12
2018-07-02T03:02:03.019Z,1012.10
2018-07-02T03:03:03.005Z,1012.10
2018-07-02T03:04:02.988Z,1012.09
2018-07-02T03:05:02.974Z,1012.09
2018-07-02T03:06:03.057Z,1012.11
2018-07-02T03:07:02.955Z,1012.08
2018-07-02T03:08:02.928Z,1012.07
2018-07-02T03:09:02.911Z,1012.08
2018-07-02T03:10:02.900Z,1012.07
2018-07-02T03:11:02.880Z,1012.11
2018-07-02T03:12:02.868Z,1012.11
2018-07-02T03:13:02.857Z,1012.13
2018-07-02T03:14:02.835Z,1012.13
2018-07-02T03:15:02.822Z,1012.18
2018-07-02T03:16:02.804Z,1012.15
2018-07-02T03:17:02.788Z,1012.17
2018-07-02T03:18:02.777Z,1012.17
2018-07-02T03:19:02.757Z,1012.16
2018-07-02T03:20:02.743Z,1012.18
2018-07-02T03:21:02.728Z,1012.17
2018-07-02T03:22:02.714Z,1012.18
2018-07-02T03:23:02.697Z,1012.21
2018-07-02T03:24:02.688Z,1012.19
2018-07-02T03:25:02.666Z,1012.24
2018-07-02T03:26:02.651Z,1012.24
2018-07-02T03:27:02.647Z,1012.23
2018-07-02T03:28:02.621Z,1012.25
2018-07-02T03:29:02.607Z,1012.24
2018-07-02T03:30:02.601Z,1012.23
2018-07-02T03:31:02.640Z,1012.23
2018-07-02T03:32:02.557Z,1012.23
2018-07-02T03:33:02.543Z,1012.20
2018-07-02T03:34:02.527Z,1012.18
2018-07-02T03:35:02.528Z,1012.18
2018-07-02T03:36:02.498Z,1012.20
2018-07-02T03:37:02.480Z,1012.21
2018-07-02T03:38:02.466Z,1012.24
2018-07-02T03:39:02.449Z,1012.24
2018-07-02T03:40:02.435Z,1012.21
2018-07-02T03:41:02.420Z,1012.18
2018-07-02T03:42:02.404Z,1012.19
2018-07-02T03:43:02.389Z,1012.17
2018-07-02T03:44:02.374Z,1012.19
2018-07-02T03:45:02.366Z,1012.18
2018-07-02T03:46:02.358Z,1012.19
2018-07-02T03:47:02.328Z,1012.22
2018-07-02T03:48:02.312Z,1012.21
2018-07-02T03:49:02.296Z,1012.24
2018-07-02T03:50:02.287Z,1012.24
2018-07-02T03:51:02.277Z,1012.26
2018-07-02T03:52:02.309Z,1012.25
2018-07-02T03:53:02.235Z,1012.22
2018-07-02T03:54:02.219Z,1012.22
2018-07-02T03:55:02.205Z,1012.23
2018-07-02T03:56:02.187Z,1012.24
2018-07-02T03:57:02.173Z,1012.26
2018-07-02T03:58:02.156Z,1012.29
2018-07-02T03:59:02.153Z,1012.26
2018-07-02T04:00:02.131Z,1012.24
2018-07-02T04:01:02.113Z,1012.28
2018-07-02T04:02:02.096Z,1012.21
2018-07-02T04:03:02.081Z,1012.22
2018-07-02T04:04:02.068Z,1012.24
2018-07-02T04:05:02.051Z,1012.22
2018-07-02T04:06:02.042Z,1012.23
2018-07-02T04:07:02.019Z,1012.22
2018-07-02T04:08:02.035Z,1012.23
2018-07-02T04:09:01.988Z,1012.28
2018-07-02T04:10:01.973Z,1012.25
2018-07-02T04:11:01.959Z,1012.25
2018-07-02T04:12:02.001Z,1012.23
2018-07-02T04:13:01.954Z,1012.24
2018-07-02T04:14:01.911Z,1012.24
2018-07-02T04:15:01.897Z,1012.23
2018-07-02T04:16:01.886Z,1012.24
2018-07-02T04:17:01.868Z,1012.21
2018-07-02T04:18:01.851Z,1012.23
2018-07-02T04:19:01.834Z,1012.24
2018-07-02T04:20:01.822Z,1012.27
2018-07-02T04:21:01.803Z,1012.28
2018-07-02T04:22:01.797Z,1012.27
2018-07-02T04:23:01.779Z,1012.30
2018-07-02T04:24:01.755Z,1012.32
2018-07-02T04:25:01.750Z,1012.34
2018-07-02T04:26:01.742Z,1012.36
2018-07-02T04:27:01.712Z,1012.38
2018-07-02T04:28:01.696Z,1012.40
2018-07-02T04:29:01.679Z,1012.40
2018-07-02T04:30:01.664Z,1012.44
2018-07-02T04:31:01.660Z,1012.37
2018-07-02T04:32:01.732Z,1012.41
2018-07-02T04:33:01.625Z,1012.39
2018-07-02T04:34:01.601Z,1012.41
2018-07-02T04:35:01.588Z,1012.41
2018-07-02T04:36:01.570Z,1012.39
2018-07-02T04:37:01.571Z,1012.42
2018-07-02T04:38:01.540Z,1012.40
2018-07-02T04:39:01.523Z,1012.39
2018-07-02T04:40:01.508Z,1012.43
2018-07-02T04:41:01.492Z,1012.43
2018-07-02T04:42:01.478Z,1012.41
2018-07-02T04:43:01.464Z,1012.45
2018-07-02T04:44:01.446Z,1012.40
2018-07-02T04:45:01.430Z,1012.44
2018-07-02T04:46:01.415Z,1012.43
2018-07-02T04:47:01.398Z,1012.44
2018-07-02T04:48:01.384Z,1012.42
2018-07-02T04:49:01.371Z,1012.43
2018-07-02T04:50:01.352Z,1012.41
2018-07-02T04:51:01.434Z,1012.43
2018-07-02T04:52:01.320Z,1012.49
2018-07-02T04:53:01.309Z,1012.48
2018-07-02T04:54:01.300Z,1012.50
2018-07-02T04:55:01.284Z,1012.55
2018-07-02T04:56:01.271Z,1012.56
2018-07-02T04:57:01.249Z,1012.54
2018-07-02T04:58:01.243Z,1012.53
2018-07-02T04:59:01.218Z,1012.54
2018-07-02T05:00:01.197Z,1012.51
2018-07-02T05:01:01.194Z,1012.54
2018-07-02T05:02:01.178Z,1012.52
2018-07-02T05:03:01.152Z,1012.53
2018-07-02T05:04:01.135Z,1012.52
2018-07-02T05:05:01.121Z,1012.54
2018-07-02T05:06:01.106Z,1012.52
2018-07-02T05:07:01.093Z,1012.59
2018-07-02T05:08:01.074Z,1012.53
2018-07-02T05:09:01.059Z,1012.56
2018-07-02T05:10:01.050Z,1012.56
2018-07-02T05:11:01.029Z,1012.60
2018-07-02T05:12:01.013Z,1012.54
2018-07-02T05:13:01.001Z,1012.56
2018-07-02T05:14:00.982Z,1012.53
2018-07-02T05:15:00.975Z,1012.51
2018-07-02T05:16:00.953Z,1012.48
2018-07-02T05:17:00.982Z,1012.51
2018-07-02T05:18:00.921Z,1012.54
2018-07-02T05:19:00.907Z,1012.51
2018-07-02T05:20:00.899Z,1012.49
2018-07-02T05:21:00.873Z,1012.54
2018-07-02T05:22:00.861Z,1012.51
2018-07-02T05:23:00.844Z,1012.54
2018-07-02T05:24:00.835Z,1012.57
2018-07-02T05:25:00.824Z,1012.56
2018-07-02T05:26:00.797Z,1012.51
2018-07-02T05:27:00.783Z,1012.53
2018-07-02T05:28:00.765Z,1012.50
2018-07-02T05:29:00.751Z,1012.47
2018-07-02T05:30:00.736Z,1012.50
2018-07-02T05:31:00.721Z,1012.51
2018-07-02T05:32:00.705Z,1012.54
2018-07-02T05:33:00.689Z,1012.50
2018-07-02T05:34:00.775Z,1012.56
2018-07-02T05:35:00.659Z,1012.48
2018-07-02T05:36:00.643Z,1012.50
2018-07-02T05:37:00.629Z,1012.47
2018-07-02T05:38:00.614Z,1012.44
2018-07-02T05:39:00.598Z,1012.50
2018-07-02T05:40:00.583Z,1012.46
2018-07-02T05:41:00.566Z,1012.49
2018-07-02T05:42:00.553Z,1012.46
2018-07-02T05:43:00.538Z,1012.54
2018-07-02T05:44:00.529Z,1012.76
2018-07-02T05:45:00.513Z,1013.24
2018-07-02T05:46:00.493Z,1013.42
2018-07-02T05:47:00.486Z,1013.54
2018-07-02T05:48:00.460Z,1013.51
2018-07-02T05:49:00.454Z,1013.60
2018-07-02T05:50:00.441Z,1013.67
2018-07-02T05:51:00.417Z,1013.70
2018-07-02T05:52:00.403Z,1013.69
2018-07-02T05:53:00.402Z,1013.68
2018-07-02T05:54:00.388Z,1013.65
2018-07-02T05:55:00.367Z,1013.71
2018-07-02T05:56:00.354Z,1013.69
2018-07-02T05:57:00.341Z,1013.62
2018-07-02T05:58:00.330Z,1013.63
2018-07-02T05:59:00.320Z,1013.59
2018-07-02T06:00:00.310Z,1013.55
2018-07-02T06:01:00.310Z,1013.50
2018-07-02T06:02:00.289Z,1013.48
2018-07-02T06:03:00.278Z,1013.45
2018-07-02T06:04:00.273Z,1013.47
2018-07-02T06:05:00.306Z,1013.43
2018-07-02T06:06:00.303Z,1013.41
2018-07-02T06:07:00.242Z,1013.46
2018-07-02T06:08:00.311Z,1013.45
2018-07-02T06:09:00.232Z,1013.41
2018-07-02T06:10:00.224Z,1013.43
2018-07-02T06:11:00.212Z,1013.44
2018-07-02T06:12:00.203Z,1013.45
2018-07-02T06:13:00.209Z,1013.39
2018-07-02T06:14:00.200Z,1013.40
2018-07-02T06:15:00.194Z,1013.39
2018-07-02T06:16:00.179Z,1013.41
2018-07-02T06:17:00.171Z,1013.36
2018-07-02T06:18:00.168Z,1013.40
2018-07-02T06:19:00.162Z,1013.39
2018-07-02T06:20:00.155Z,1013.39
2018-07-02T06:21:00.151Z,1013.36
2018-07-02T06:22:00.168Z,1013.36
2018-07-02T06:23:00.149Z,1013.30
2018-07-02T06:24:00.138Z,1013.31
2018-07-02T06:25:00.133Z,1013.33
2018-07-02T06:26:00.139Z,1013.34
2018-07-02T06:27:00.142Z,1013.30
2018-07-02T06:28:00.125Z,1013.30
2018-07-02T06:29:00.117Z,1013.32
2018-07-02T06:30:00.118Z,1013.29
2018-07-02T06:31:00.117Z,1013.32
2018-07-02T06:32:00.114Z,1013.26
2018-07-02T06:33:00.102Z,1013.25
2018-07-02T06:34:00.110Z,1013.22
2018-07-02T06:35:00.102Z,1013.20
2018-07-02T06:36:00.093Z,1013.24
2018-07-02T06:37:00.239Z,1013.24
2018-07-02T06:38:00.091Z,1013.26
2018-07-02T06:39:00.085Z,1013.24
2018-07-02T06:40:00.084Z,1013.22
2018-07-02T06:41:00.089Z,1013.24
2018-07-02T06:42:00.102Z,1013.26
2018-07-02T06:43:00.094Z,1013.24
2018-07-02T06:44:00.075Z,1013.24
2018-07-02T06:45:00.080Z,1013.18
2018-07-02T06:46:00.080Z,1013.17
2018-07-02T06:47:00.070Z,1013.16
2018-07-02T06:48:00.073Z,1013.19
2018-07-02T06:49:00.070Z,1013.17
2018-07-02T06:50:00.071Z,1013.17
2018-07-02T06:51:00.068Z,1013.15
2018-07-02T06:52:00.077Z,1013.23
2018-07-02T06:53:00.121Z,1013.21
2018-07-02T06:54:00.067Z,1013.21
2018-07-02T06:55:00.072Z,1013.20
2018-07-02T06:56:00.067Z,1013.18
2018-07-02T06:57:00.075Z,1013.20
2018-07-02T06:58:00.071Z,1013.25
2018-07-02T06:59:00.071Z,1013.25
2018-07-02T07:00:00.072Z,1013.26
2018-07-02T07:01:00.096Z,1013.26
2018-07-02T07:02:00.072Z,1013.24
2018-07-02T07:03:00.123Z,1013.21
2018-07-02T07:04:00.073Z,1013.07
2018-07-02T07:05:00.078Z,1013.06
2018-07-02T07:06:00.077Z,1013.08
2018-07-02T07:07:00.078Z,1013.28
2018-07-02T07:08:00.080Z,1013.31
2018-07-02T07:09:00.083Z,1013.30
2018-07-02T07:10:00.083Z,1013.33
2018-07-02T07:11:00.085Z,1013.27
2018-07-02T07:12:00.094Z,1013.11
2018-07-02T07:13:00.095Z,1013.25
2018-07-02T07:14:00.088Z,1013.33
2018-07-02T07:15:00.099Z,1013.32
2018-07-02T07:16:00.091Z,1013.29
2018-07-02T07:17:00.101Z,1013.32
2018-07-02T07:18:00.093Z,1012.87
2018-07-02T07:19:00.095Z,1013.27
2018-07-02T07:20:00.095Z,1013.30
2018-07-02T07:21:00.096Z,1013.25
2018-07-02T07:22:00.098Z,1013.26
2018-07-02T07:23:00.098Z,1013.25
2018-07-02T07:24:00.100Z,1013.21
2018-07-02T07:25:00.102Z,1013.19
2018-07-02T07:26:00.113Z,1013.21
2018-07-02T07:27:00.113Z,1013.22
2018-07-02T07:28:00.110Z,1013.27
2018-07-02T07:29:00.106Z,1013.24
2018-07-02T07:30:00.129Z,1013.21
2018-07-02T07:31:00.120Z,1013.27
2018-07-02T07:32:00.116Z,1013.23
2018-07-02T07:33:00.113Z,1013.28
2018-07-02T07:34:00.116Z,1013.25
2018-07-02T07:35:00.117Z,1013.27
2018-07-02T07:36:00.136Z,1013.24
2018-07-02T07:37:00.122Z,1013.19
2018-07-02T07:38:00.122Z,1012.90
2018-07-02T07:39:00.125Z,1012.90
2018-07-02T07:40:00.133Z,1012.82
2018-07-02T07:41:00.130Z,1012.92
2018-07-02T07:42:00.134Z,1012.86
2018-07-02T07:43:00.153Z,1012.90
2018-07-02T07:44:00.140Z,1012.78
2018-07-02T07:45:00.140Z,1012.83
2018-07-02T07:46:00.142Z,1012.90
2018-07-02T07:47:00.142Z,1012.89
2018-07-02T07:48:00.146Z,1012.85
2018-07-02T07:49:00.138Z,1012.82
2018-07-02T07:50:00.147Z,1012.88
2018-07-02T07:51:00.148Z,1012.88
2018-07-02T07:52:00.135Z,1012.87
2018-07-02T07:53:00.152Z,1012.85
2018-07-02T07:54:00.130Z,1012.89
2018-07-02T07:55:00.142Z,1013.10
2018-07-02T07:56:00.136Z,1012.81
2018-07-02T07:57:00.121Z,1012.84
2018-07-02T07:58:00.120Z,1012.86
2018-07-02T07:59:00.113Z,1012.80
2018-07-02T08:00:00.117Z,1012.83
2018-07-02T08:01:00.109Z,1012.80
2018-07-02T08:02:00.100Z,1012.84
2018-07-02T08:03:00.098Z,1012.80
2018-07-02T08:04:00.094Z,1012.78
2018-07-02T08:05:00.086Z,1012.89
2018-07-02T08:06:00.081Z,1012.86
2018-07-02T08:07:00.085Z,1012.90
2018-07-02T08:08:00.072Z,1012.89
2018-07-02T08:09:00.067Z,1012.88
2018-07-02T08:10:00.067Z,1012.89
2018-07-02T08:11:00.059Z,1012.89
2018-07-02T08:12:00.054Z,1012.87
2018-07-02T08:13:00.048Z,1012.99
2018-07-02T08:14:00.060Z,1012.99
2018-07-02T08:15:00.067Z,1012.99
2018-07-02T08:16:00.033Z,1012.98
2018-07-02T08:17:00.029Z,1012.95
2018-07-02T08:18:00.031Z,1012.98
2018-07-02T08:19:00.055Z,1012.92
2018-07-02T08:20:00.019Z,1012.87
2018-07-02T08:21:00.007Z,1012.91
2018-07-02T08:22:00.010Z,1012.85
2018-07-02T08:22:59.993Z,1012.90
2018-07-02T08:24:00.009Z,1012.90
2018-07-02T08:24:59.980Z,1012.91
2018-07-02T08:25:59.981Z,1013.03
2018-07-02T08:26:59.969Z,1012.89
2018-07-02T08:27:59.973Z,1012.90
2018-07-02T08:28:59.960Z,1012.85
2018-07-02T08:29:59.956Z,1012.80
2018-07-02T08:30:59.955Z,1012.77
2018-07-02T08:31:59.942Z,1012.77
2018-07-02T08:33:00.013Z,1012.73
2018-07-02T08:33:59.930Z,1012.75
2018-07-02T08:34:59.921Z,1012.75
2018-07-02T08:35:59.910Z,1012.75
2018-07-02T08:36:59.904Z,1012.76
2018-07-02T08:37:59.897Z,1012.80
2018-07-02T08:40:14.438Z,1012.77
2018-07-02T08:42:24.333Z,1012.83
2018-07-02T08:43:20.492Z,1012.86
2018-07-02T08:51:06.638Z,1012.76
2018-07-02T08:52:06.625Z,1012.75
2018-07-02T08:53:06.611Z,1012.83
2018-07-02T08:54:06.602Z,1012.90
2018-07-02T08:55:06.603Z,1012.83
2018-07-02T08:56:06.597Z,1012.86
2018-07-02T08:57:06.584Z,1012.82
2018-07-02T08:58:06.571Z,1012.83
2018-07-02T08:59:06.560Z,1012.77
2018-07-02T09:00:06.550Z,1012.81
2018-07-02T09:01:06.552Z,1012.85
2018-07-02T09:02:06.533Z,1012.83
2018-07-02T09:03:06.524Z,1012.82
2018-07-02T09:04:06.537Z,1013.04
2018-07-02T09:05:06.511Z,1013.03
2018-07-02T09:06:06.502Z,1013.13
2018-07-02T09:07:06.490Z,1012.98
2018-07-02T09:08:06.480Z,1012.81
2018-07-02T09:09:06.484Z,1012.83
2018-07-02T09:10:06.467Z,1012.89
2018-07-02T09:11:06.473Z,1013.18
2018-07-02T09:12:06.451Z,1013.15
2018-07-02T09:13:06.451Z,1012.83
2018-07-02T09:14:06.434Z,1013.11
2018-07-02T09:15:06.428Z,1013.26
2018-07-02T09:16:06.421Z,1012.95
2018-07-02T09:17:06.423Z,1013.22
2018-07-02T09:18:06.423Z,1013.22
2018-07-02T09:19:06.405Z,1013.16
2018-07-02T09:20:06.399Z,1013.20
2018-07-02T09:21:06.394Z,1013.12
2018-07-02T09:22:06.391Z,1013.24
2018-07-02T09:23:06.386Z,1013.13
2018-07-02T09:24:06.389Z,1012.97
2018-07-02T09:25:06.381Z,1013.15
2018-07-02T09:26:06.384Z,1012.61
2018-07-02T09:27:06.376Z,1012.73
2018-07-02T09:28:06.385Z,1012.62
2018-07-02T09:29:06.371Z,1012.52
2018-07-02T09:30:06.374Z,1013.11
2018-07-02T09:31:06.367Z,1012.83
2018-07-02T09:32:06.374Z,1012.64
2018-07-02T09:33:06.363Z,1012.70
2018-07-02T09:34:06.361Z,1013.20
2018-07-02T09:35:06.376Z,1013.13
2018-07-02T09:36:06.358Z,1013.00
2018-07-02T09:37:06.357Z,1013.08
2018-07-02T09:38:06.371Z,1012.72
2018-07-02T09:39:06.359Z,1013.13
2018-07-02T09:40:06.363Z,1013.04
2018-07-02T09:41:06.351Z,1012.94
2018-07-02T09:42:06.349Z,1013.02
2018-07-02T09:43:06.351Z,1013.03
2018-07-02T09:44:06.349Z,1012.64
2018-07-02T09:45:06.348Z,1012.70
2018-07-02T09:46:06.349Z,1012.62
2018-07-02T09:47:06.350Z,1012.87
2018-07-02T09:48:06.347Z,1012.81
2018-07-02T09:49:06.345Z,1012.68
2018-07-02T09:50:06.346Z,1012.68
2018-07-02T09:51:06.346Z,1012.70
2018-07-02T09:52:06.351Z,1012.71
2018-07-02T09:53:06.394Z,1012.64
2018-07-02T09:54:06.351Z,1012.62
2018-07-02T09:55:06.341Z,1013.01
2018-07-02T09:56:06.339Z,1013.10
2018-07-02T09:57:06.341Z,1013.00
2018-07-02T09:58:06.344Z,1013.05
2018-07-02T09:59:06.582Z,1012.73
2018-07-02T10:00:06.334Z,1012.80
2018-07-02T10:01:06.351Z,1012.82
2018-07-02T10:02:06.333Z,1012.77
2018-07-02T10:03:06.334Z,1012.68
2018-07-02T10:04:06.331Z,1012.75
2018-07-02T10:05:06.333Z,1012.76
2018-07-02T10:06:06.331Z,1012.82
2018-07-02T10:07:06.331Z,1012.61
2018-07-02T10:08:06.330Z,1012.73
2018-07-02T10:09:06.345Z,1012.80
2018-07-02T10:10:06.361Z,1012.68
2018-07-02T10:11:06.327Z,1012.78
2018-07-02T10:12:06.333Z,1012.73
2018-07-02T10:13:06.334Z,1012.67
2018-07-02T10:14:06.324Z,1012.92
2018-07-02T10:15:06.335Z,1012.66
2018-07-02T10:16:06.325Z,1012.90
2018-07-02T10:17:06.334Z,1012.85
2018-07-02T10:18:06.332Z,1012.82
2018-07-02T10:19:06.330Z,1012.64
2018-07-02T10:20:06.333Z,1012.84
2018-07-02T10:21:06.337Z,1012.82
2018-07-02T10:22:06.331Z,1012.88
2018-07-02T10:23:06.334Z,1012.77
2018-07-02T10:24:06.340Z,1012.74
2018-07-02T10:25:06.335Z,1012.73
2018-07-02T10:26:06.345Z,1012.79
2018-07-02T10:27:06.339Z,1012.71
2018-07-02T10:28:06.342Z,1012.73
2018-07-02T10:29:06.375Z,1012.66
2018-07-02T10:30:06.349Z,1012.59
2018-07-02T10:31:06.390Z,1012.62
2018-07-02T10:32:06.362Z,1012.61
2018-07-02T10:33:06.356Z,1012.58
2018-07-02T10:34:06.359Z,1012.56
2018-07-02T10:35:06.372Z,1012.63
2018-07-02T10:36:06.383Z,1012.58
2018-07-02T10:37:06.375Z,1012.62
2018-07-02T10:38:06.378Z,1012.60
2018-07-02T10:39:06.382Z,1012.58
2018-07-02T10:40:06.386Z,1012.47
2018-07-02T10:41:06.713Z,1012.43
2018-07-02T10:42:06.398Z,1012.40
2018-07-02T10:43:06.399Z,1012.43
2018-07-02T10:44:06.412Z,1012.38
2018-07-02T10:45:06.407Z,1012.39
2018-07-02T10:46:06.413Z,1012.41
2018-07-02T10:47:06.476Z,1012.47
2018-07-02T10:48:06.422Z,1012.35
2018-07-02T10:49:06.427Z,1012.40
2018-07-02T10:50:06.434Z,1012.36
2018-07-02T10:51:06.440Z,1012.31
2018-07-02T10:52:06.446Z,1012.24
2018-07-02T10:53:06.457Z,1012.14
2018-07-02T10:54:06.464Z,1012.19
2018-07-02T10:55:06.476Z,1012.16
2018-07-02T10:56:06.476Z,1012.08
2018-07-02T10:57:06.480Z,1012.13
2018-07-02T10:58:06.478Z,1012.19
2018-07-02T10:59:06.491Z,1012.10
2018-07-02T11:00:06.503Z,1012.10
2018-07-02T11:01:06.507Z,1012.15
2018-07-02T11:02:06.505Z,1012.19
2018-07-02T11:03:06.510Z,1012.16
2018-07-02T11:04:06.516Z,1012.15
2018-07-02T11:05:06.526Z,1012.18
2018-07-02T11:06:06.542Z,1012.16
2018-07-02T11:07:06.537Z,1012.17
2018-07-02T11:08:06.547Z,1012.17
2018-07-02T11:09:06.546Z,1012.20
2018-07-02T11:10:06.611Z,1012.16
2018-07-02T11:11:06.562Z,1012.18
2018-07-02T11:12:06.565Z,1012.21
2018-07-02T11:13:06.570Z,1012.33
2018-07-02T11:14:06.578Z,1012.43
2018-07-02T11:15:06.590Z,1012.45
2018-07-02T11:16:06.594Z,1012.43
2018-07-02T11:17:06.611Z,1012.46
2018-07-02T11:18:06.613Z,1012.52
2018-07-02T11:19:06.628Z,1012.61
2018-07-02T11:20:06.723Z,1012.63
2018-07-02T11:21:06.623Z,1012.64
2018-07-02T11:22:06.630Z,1012.71
2018-07-02T11:23:06.639Z,1012.81
2018-07-02T11:24:06.646Z,1012.80
2018-07-02T11:25:06.656Z,1012.80
2018-07-02T11:26:06.677Z,1012.88
2018-07-02T11:27:06.679Z,1012.83
2018-07-02T11:28:06.685Z,1012.92
2018-07-02T11:29:06.691Z,1012.94
2018-07-02T11:30:06.690Z,1012.94
2018-07-02T11:31:06.699Z,1012.89
2018-07-02T11:32:06.703Z,1012.88
2018-07-02T11:33:06.717Z,1013.05
2018-07-02T11:34:06.715Z,1012.92
2018-07-02T11:35:06.723Z,1012.93
2018-07-02T11:36:06.727Z,1013.05
2018-07-02T11:37:06.735Z,1013.24
2018-07-02T11:38:06.749Z,1013.45
2018-07-02T11:39:06.757Z,1013.53
2018-07-02T11:40:06.763Z,1013.69
2018-07-02T11:41:06.759Z,1013.62
2018-07-02T11:42:06.766Z,1013.75
2018-07-02T11:43:06.779Z,1013.86
2018-07-02T11:44:06.821Z,1013.67
2018-07-02T11:45:06.790Z,1013.69
2018-07-02T11:46:06.788Z,1013.81
2018-07-02T11:47:06.792Z,1013.62
2018-07-02T11:48:06.853Z,1012.94
2018-07-02T11:49:06.806Z,1012.37
2018-07-02T11:50:06.812Z,1012.29
2018-07-02T11:51:06.813Z,1012.24
2018-07-02T11:52:06.818Z,1012.28
2018-07-02T11:53:06.817Z,1012.20
2018-07-02T11:54:06.818Z,1012.20
2018-07-02T11:55:06.823Z,1012.13
2018-07-02T11:56:06.824Z,1012.18
2018-07-02T11:57:06.824Z,1012.15
2018-07-02T11:58:06.826Z,1012.12
2018-07-02T11:59:06.839Z,1012.08
2018-07-02T12:00:06.824Z,1012.17
2018-07-02T12:01:06.843Z,1012.16
2018-07-02T12:02:06.831Z,1012.10
2018-07-02T12:03:06.831Z,1012.11
2018-07-02T12:04:06.850Z,1012.04
2018-07-02T12:05:06.820Z,1012.08
2018-07-02T12:06:06.824Z,1012.06
2018-07-02T12:07:06.825Z,1012.02
2018-07-02T12:08:06.812Z,1012.05
2018-07-02T12:09:06.808Z,1012.02
2018-07-02T12:10:06.804Z,1012.11
2018-07-02T12:11:06.802Z,1012.11
2018-07-02T12:12:06.804Z,1012.08
2018-07-02T12:13:06.811Z,1012.17
2018-07-02T12:14:06.788Z,1012.16